Time;durP1;ratioP1;P1;durP2;ratioP2;P2;SDS_P1;SDS_P2;PMS_P1;PMS_P2;Temp;Humidity;BMP_temperature;BMP_pressure;BME280_temperature;BME280_humidity;BME280_pressure;Samples;Min_cycle;Max_cycle;Signal;HPM_P1;HPM_P2
2023/09/28 00:00:38;;;;;;;7.90;5.75;;;;;;;21.95;47.82;93586.41;6040824;23;20343;-91
2023/09/28 00:03:04;;;;;;;9.10;5.68;;;;;;;21.97;47.41;93583.13;6043528;23;20769;-92
2023/09/28 00:05:29;;;;;;;6.28;5.68;;;;;;;21.93;47.69;93583.44;6040575;23;20058;-91
2023/09/28 00:07:58;;;;;;;5.70;5.00;;;;;;;21.96;47.68;93585.16;6041232;23;20030;-91
2023/09/28 00:10:23;;;;;;;7.20;5.70;;;;;;;21.96;47.56;93587.16;6040906;23;20026;-92
2023/09/28 00:12:49;;;;;;;7.13;5.68;;;;;;;21.94;47.80;93589.69;6040842;23;20022;-92
2023/09/28 00:15:15;;;;;;;7.03;5.70;;;;;;;21.99;47.83;93594.38;6040063;23;20026;-92
2023/09/28 00:17:40;;;;;;;7.28;5.05;;;;;;;21.94;47.70;93590.44;6037786;23;20025;-91
2023/09/28 00:20:18;;;;;;;7.00;4.72;;;;;;;21.96;47.59;93589.91;6013133;23;20023;-91
2023/09/28 00:22:44;;;;;;;6.28;5.57;;;;;;;21.94;47.74;93586.94;6017520;23;20054;-92
2023/09/28 00:25:11;;;;;;;5.85;4.93;;;;;;;21.96;47.68;93589.91;6013354;23;20027;-91
2023/09/28 00:27:43;;;;;;;6.68;5.00;;;;;;;21.94;47.74;93586.94;6015034;23;20090;-91
2023/09/28 00:30:09;;;;;;;5.82;4.97;;;;;;;21.95;47.73;93593.94;6013901;23;20022;-92
2023/09/28 00:32:36;;;;;;;7.57;5.25;;;;;;;21.92;47.75;93595.72;6038433;23;20022;-91
2023/09/28 00:35:04;;;;;;;5.43;4.93;;;;;;;21.94;47.66;93595.22;6014368;23;20034;-92
2023/09/28 00:37:30;;;;;;;6.50;5.20;;;;;;;21.96;47.56;93595.41;6013418;23;20392;-91
2023/09/28 00:39:55;;;;;;;7.10;5.20;;;;;;;21.93;47.63;93597.22;6038207;23;20047;-92
2023/09/28 00:42:22;;;;;;;7.30;4.88;;;;;;;21.96;47.60;93609.19;6036489;23;20023;-92
2023/09/28 00:44:47;;;;;;;5.85;4.88;;;;;;;21.92;47.70;93603.25;6037795;23;20102;-91
2023/09/28 00:47:13;;;;;;;5.68;5.07;;;;;;;21.94;47.64;93604.22;6037067;23;20029;-91
2023/09/28 00:49:38;;;;;;;6.85;5.30;;;;;;;21.95;47.73;93607.69;6037295;23;20015;-91
2023/09/28 00:52:07;;;;;;;5.88;5.00;;;;;;;21.93;47.80;93597.22;6013096;23;20019;-91
2023/09/28 00:54:33;;;;;;;5.65;4.70;;;;;;;21.94;47.58;93589.69;6038318;23;20324;-91
2023/09/28 00:56:58;;;;;;;7.40;4.82;;;;;;;21.94;47.61;93592.44;6023323;23;20089;-92
2023/09/28 00:59:24;;;;;;;5.45;4.80;;;;;;;21.91;47.67;93594.25;6013143;23;20351;-91
2023/09/28 01:01:50;;;;;;;6.35;4.95;;;;;;;21.94;47.43;93601.44;6036700;23;20026;-91
2023/09/28 01:04:16;;;;;;;5.68;5.00;;;;;;;21.93;47.73;93596.47;6036770;23;20030;-92
2023/09/28 01:06:41;;;;;;;6.10;4.60;;;;;;;21.91;47.74;93597.00;6014065;23;20037;-92
2023/09/28 01:09:08;;;;;;;5.63;4.97;;;;;;;21.91;47.68;93594.25;6037056;23;20205;-92
2023/09/28 01:11:34;;;;;;;5.43;4.55;;;;;;;21.91;47.45;93605.25;6037968;23;20516;-91
2023/09/28 01:14:01;;;;;;;5.97;4.93;;;;;;;21.90;47.54;93601.75;6037163;23;20028;-91
2023/09/28 01:16:26;;;;;;;6.18;5.00;;;;;;;21.90;47.45;93603.78;6036769;23;20023;-92
2023/09/28 01:18:52;;;;;;;5.82;4.63;;;;;;;21.89;47.69;93599.53;6013740;23;20029;-92
2023/09/28 01:21:18;;;;;;;6.32;4.57;;;;;;;21.89;47.69;93599.53;6014158;23;20029;-91
2023/09/28 01:23:45;;;;;;;5.60;5.00;;;;;;;21.93;47.60;93607.47;6037291;23;20011;-92
2023/09/28 01:26:10;;;;;;;7.07;5.35;;;;;;;21.91;47.72;93608.00;6012735;23;20058;-91
2023/09/28 01:28:38;;;;;;;6.40;4.60;;;;;;;21.89;47.85;93599.53;6037540;23;20014;-91
2023/09/28 01:31:03;;;;;;;5.22;4.70;;;;;;;21.91;47.72;93608.00;6013823;23;20047;-91
2023/09/28 01:33:30;;;;;;;6.32;5.47;;;;;;;21.91;47.87;93599.75;6013510;23;20022;-90
2023/09/28 01:35:55;;;;;;;5.35;4.78;;;;;;;21.91;47.59;93602.50;6014150;23;20022;-91
2023/09/28 01:38:28;;;;;;;6.78;4.70;;;;;;;21.88;47.55;93607.06;6013183;23;20029;-90
2023/09/28 01:40:54;;;;;;;7.05;4.57;;;;;;;21.90;47.71;93612.78;6013892;23;20019;-91
2023/09/28 01:43:19;;;;;;;5.32;4.50;;;;;;;21.88;47.59;93615.31;6036172;23;20023;-92
2023/09/28 01:45:45;;;;;;;5.47;4.45;;;;;;;21.88;47.89;93606.31;6037246;23;20019;-92
2023/09/28 01:48:11;;;;;;;6.55;5.47;;;;;;;21.89;47.75;93599.53;6012373;23;20026;-92
2023/09/28 01:50:36;;;;;;;5.18;4.55;;;;;;;21.89;47.76;93603.03;6037435;23;20042;-91
2023/09/28 01:53:02;;;;;;;5.57;4.80;;;;;;;21.90;47.82;93595.50;6037715;23;20052;-91
2023/09/28 01:55:28;;;;;;;6.45;4.60;;;;;;;21.86;47.97;93598.59;6036354;23;20041;-91
2023/09/28 01:57:54;;;;;;;6.38;5.05;;;;;;;21.87;47.83;93599.31;6062531;23;20058;-91
2023/09/28 02:00:22;;;;;;;5.10;4.35;;;;;;;21.86;47.85;93595.13;6041102;23;20466;-91
2023/09/28 02:02:47;;;;;;;5.65;4.88;;;;;;;21.87;47.51;93600.06;6065226;23;20105;-90
2023/09/28 02:05:16;;;;;;;4.68;4.18;;;;;;;21.86;47.73;93608.88;6041114;23;20042;-92
2023/09/28 02:07:42;;;;;;;4.75;4.30;;;;;;;21.89;47.52;93610.53;6065263;23;20386;-92
2023/09/28 02:10:09;;;;;;;7.80;4.53;;;;;;;21.89;47.73;93602.28;6040820;23;20438;-91
2023/09/28 02:12:36;;;;;;;5.03;4.53;;;;;;;21.88;47.60;93609.06;6041921;23;20123;-91
2023/09/28 02:15:03;;;;;;;6.70;4.75;;;;;;;21.86;47.69;93611.63;6066084;23;20090;-92
2023/09/28 02:17:29;;;;;;;5.25;4.53;;;;;;;21.88;47.60;93604.31;6064477;23;20028;-92
2023/09/28 02:19:54;;;;;;;4.38;3.97;;;;;;;21.86;47.78;93606.88;6041305;23;20022;-91
2023/09/28 02:22:20;;;;;;;5.45;4.38;;;;;;;21.86;47.75;93608.88;6040511;23;20278;-91
2023/09/28 02:24:46;;;;;;;6.35;4.50;;;;;;;21.86;47.59;93617.88;6041017;23;20057;-92
2023/09/28 02:27:12;;;;;;;5.45;4.20;;;;;;;21.86;47.74;93606.13;6064552;23;20019;-92
2023/09/28 02:29:38;;;;;;;4.63;4.22;;;;;;;21.87;47.54;93602.06;6041929;23;20014;-92
2023/09/28 02:32:03;;;;;;;4.75;4.15;;;;;;;21.85;47.73;93599.13;6040517;23;20342;-91
2023/09/28 02:34:33;;;;;;;5.30;4.38;;;;;;;21.87;47.52;93599.31;6041588;23;20496;-92
2023/09/28 02:37:01;;;;;;;5.32;4.43;;;;;;;21.84;47.68;93611.41;6041369;23;20022;-91
2023/09/28 02:39:28;;;;;;;5.75;4.18;;;;;;;21.85;47.78;93610.16;6041045;23;20070;-92
2023/09/28 02:41:54;;;;;;;4.60;4.07;;;;;;;21.86;47.55;93614.38;6042090;23;20021;-92
2023/09/28 02:44:19;;;;;;;5.38;4.10;;;;;;;21.88;47.52;93618.06;6040536;23;20019;-90
2023/09/28 02:46:45;;;;;;;5.97;4.68;;;;;;;21.85;47.64;93619.16;6041080;23;20026;-91
2023/09/28 02:49:10;;;;;;;6.05;4.72;;;;;;;21.88;47.39;93617.31;6040067;23;20458;-91
2023/09/28 02:51:36;;;;;;;5.97;4.53;;;;;;;21.84;47.44;93620.41;6065848;23;20029;-91
2023/09/28 02:54:01;;;;;;;5.28;4.15;;;;;;;21.85;47.46;93621.91;6064637;23;20459;-91
2023/09/28 02:56:27;;;;;;;4.60;3.88;;;;;;;21.86;47.68;93626.13;6058856;23;20427;-91
2023/09/28 02:58:53;;;;;;;4.93;4.10;;;;;;;21.84;47.72;93625.91;6036619;23;20030;-91
2023/09/28 03:01:21;;;;;;;5.70;4.63;;;;;;;21.87;47.82;93627.59;6012302;23;20070;-91
2023/09/28 03:03:46;;;;;;;4.88;4.20;;;;;;;21.85;47.45;93630.16;6013934;23;20033;-91
2023/09/28 03:06:12;;;;;;;4.25;3.80;;;;;;;21.83;47.53;93629.19;6011686;23;20352;-91
2023/09/28 03:08:37;;;;;;;5.18;4.50;;;;;;;21.86;47.31;93630.91;6036948;23;20023;-91
2023/09/28 03:11:03;;;;;;;4.65;3.78;;;;;;;21.83;47.74;93627.19;6036545;23;20053;-91
2023/09/28 03:13:28;;;;;;;5.00;4.07;;;;;;;21.83;48.12;93637.44;6012304;23;20015;-91
2023/09/28 03:15:54;;;;;;;6.10;4.05;;;;;;;21.83;47.67;93635.44;6036326;23;20026;-91
2023/09/28 03:18:20;;;;;;;6.13;4.32;;;;;;;21.81;47.76;93635.22;6012384;23;20097;-91
2023/09/28 03:20:45;;;;;;;5.25;4.40;;;;;;;21.80;47.82;93642.00;6036881;23;20019;-91
2023/09/28 03:23:11;;;;;;;4.90;4.40;;;;;;;21.85;47.67;93640.41;6011995;23;20443;-91
2023/09/28 03:25:37;;;;;;;5.15;4.10;;;;;;;21.87;47.73;93646.84;6013402;23;20022;-92
2023/09/28 03:28:03;;;;;;;9.45;4.28;;;;;;;21.84;47.53;93645.19;6061495;23;20026;-91
2023/09/28 03:30:28;;;;;;;7.47;4.20;;;;;;;21.86;47.74;93650.16;6039614;23;20015;-91
2023/09/28 03:32:54;;;;;;;43.45;35.10;;;;;;;21.92;47.87;93645.28;6016347;23;20039;-94
2023/09/28 03:35:20;;;;;;;13.68;7.78;;;;;;;22.03;47.70;93647.13;6039984;23;20459;-90
2023/09/28 03:37:46;;;;;;;35.47;29.55;;;;;;;21.97;47.71;93643.69;6064451;23;20030;-91
2023/09/28 03:40:12;;;;;;;11.75;6.28;;;;;;;21.97;47.54;93640.94;6016031;23;20030;-90
2023/09/28 03:42:41;;;;;;;14.13;9.30;;;;;;;21.99;47.44;93644.66;6064169;23;20031;-91
2023/09/28 03:45:14;;;;;;;8.48;5.35;;;;;;;22.02;47.31;93637.38;6014454;23;20105;-90
2023/09/28 03:47:40;;;;;;;8.10;4.57;;;;;;;22.04;47.77;93640.34;6014919;23;20078;-94
2023/09/28 03:50:11;;;;;;;8.73;4.93;;;;;;;21.95;47.60;93640.72;6042286;23;20022;-93
2023/09/28 03:52:37;;;;;;;8.23;4.90;;;;;;;22.00;47.44;93645.41;6039916;23;20019;-94
2023/09/28 03:55:10;;;;;;;11.55;5.13;;;;;;;21.92;47.70;93644.53;6013958;23;20122;-89
2023/09/28 03:57:36;;;;;;;7.28;4.68;;;;;;;21.93;47.43;93638.50;6039150;23;20027;-90
2023/09/28 04:00:03;;;;;;;58.75;22.85;;;;;;;21.90;45.64;93643.06;6038300;23;20112;-90
2023/09/28 04:02:29;;;;;;;40.05;19.25;;;;;;;21.80;44.41;93635.75;6009253;23;20740;-89
2023/09/28 04:04:56;;;;;;;36.20;15.77;;;;;;;21.70;43.25;93645.66;6059635;23;20038;-88
2023/09/28 04:07:24;;;;;;;30.42;14.65;;;;;;;21.60;42.80;93639.84;6039199;23;20582;-91
2023/09/28 04:09:51;;;;;;;39.70;13.60;;;;;;;21.60;42.64;93645.34;6037948;23;20762;-91
2023/09/28 04:12:16;;;;;;;34.67;11.98;;;;;;;21.54;42.06;93642.69;6037565;23;20075;-89
2023/09/28 04:14:42;;;;;;;60.55;28.38;;;;;;;21.46;42.17;93652.81;6038116;23;20021;-90
2023/09/28 04:17:07;;;;;;;68.30;25.33;;;;;;;21.41;41.86;93655.69;6037112;23;20082;-90
2023/09/28 04:19:34;;;;;;;78.50;29.60;;;;;;;21.31;41.81;93658.06;6061480;23;20022;-90
2023/09/28 04:21:59;;;;;;;117.20;32.20;;;;;;;21.27;42.35;93654.88;6039047;23;20501;-90
2023/09/28 04:24:25;;;;;;;109.20;26.67;;;;;;;21.19;41.87;93667.75;6023113;23;20086;-89
2023/09/28 04:26:51;;;;;;;92.93;28.45;;;;;;;21.24;42.00;93663.44;6031272;23;20025;-91
2023/09/28 04:29:20;;;;;;;95.82;33.90;;;;;;;21.14;42.05;93666.56;6037275;23;20023;-91
2023/09/28 04:31:46;;;;;;;116.72;29.20;;;;;;;21.16;41.93;93679.78;6059632;23;20094;-91
2023/09/28 04:34:15;;;;;;;76.18;22.52;;;;;;;21.18;42.11;93677.25;6062358;23;20467;-90
2023/09/28 04:36:41;;;;;;;82.47;23.55;;;;;;;21.16;42.30;93674.28;6063148;23;20045;-89
2023/09/28 04:39:10;;;;;;;66.68;19.77;;;;;;;21.16;42.09;93668.78;6063167;23;20038;-91
2023/09/28 04:41:37;;;;;;;44.80;14.60;;;;;;;21.05;42.37;93674.44;6061664;23;20384;-96
2023/09/28 04:44:03;;;;;;;46.17;15.75;;;;;;;21.06;42.62;93684.16;6059355;23;20019;-89
2023/09/28 04:46:28;;;;;;;123.47;71.13;;;;;;;20.99;43.10;93680.03;6058639;23;20073;-91
2023/09/28 04:48:54;;;;;;;89.88;49.83;;;;;;;20.99;43.15;93679.28;6036155;23;20054;-89
2023/09/28 04:51:19;;;;;;;66.15;24.30;;;;;;;21.09;42.92;93674.88;6034730;23;20448;-91
2023/09/28 04:53:45;;;;;;;63.53;24.65;;;;;;;21.10;43.16;93682.59;6058474;23;20138;-90
2023/09/28 04:56:11;;;;;;;61.47;24.58;;;;;;;21.19;43.06;93693.22;6041998;23;20395;-90
2023/09/28 04:58:37;;;;;;;58.22;24.45;;;;;;;21.17;43.06;93687.50;6047872;23;20010;-89
2023/09/28 05:01:02;;;;;;;69.82;27.85;;;;;;;21.17;42.96;93684.75;6068477;23;20089;-90
2023/09/28 05:03:29;;;;;;;67.22;24.45;;;;;;;21.26;43.03;93682.91;6047698;23;20021;-90
2023/09/28 05:05:55;;;;;;;77.55;32.30;;;;;;;21.28;43.05;93672.88;6072464;23;20033;-92
2023/09/28 05:08:20;;;;;;;77.05;34.35;;;;;;;21.30;43.12;93678.59;6068250;23;20354;-92
2023/09/28 05:10:45;;;;;;;83.70;37.75;;;;;;;21.29;43.32;93674.34;6097094;23;20085;-91
2023/09/28 05:13:12;;;;;;;110.80;46.65;;;;;;;21.32;43.51;93678.81;6071305;23;20024;-91
2023/09/28 05:15:37;;;;;;;124.60;51.75;;;;;;;21.42;43.89;93679.16;6096346;23;20095;-93
2023/09/28 05:18:04;;;;;;;122.28;49.17;;;;;;;21.42;43.48;93679.91;6046142;23;20101;-92
2023/09/28 05:20:30;;;;;;;126.07;53.13;;;;;;;21.42;43.68;93676.41;6073450;23;20030;-90
2023/09/28 05:22:55;;;;;;;135.13;56.47;;;;;;;21.45;43.71;93694.59;6050660;23;20088;-91
2023/09/28 05:25:25;;;;;;;146.57;57.70;;;;;;;21.44;43.87;93691.09;6072833;23;20053;-92
2023/09/28 05:27:51;;;;;;;127.10;52.90;;;;;;;21.48;43.96;93688.78;6051105;23;20021;-94
2023/09/28 05:30:17;;;;;;;146.68;60.17;;;;;;;21.49;43.92;93697.78;6069952;23;20030;-91
2023/09/28 05:32:42;;;;;;;169.55;63.72;;;;;;;21.50;43.91;93694.50;6072957;23;20018;-90
2023/09/28 05:35:08;;;;;;;165.65;66.53;;;;;;;21.54;43.81;93685.97;6070979;23;20014;-90
2023/09/28 05:37:33;;;;;;;159.40;64.68;;;;;;;21.54;43.90;93699.72;6048297;23;20037;-92
2023/09/28 05:39:59;;;;;;;147.25;56.63;;;;;;;21.54;43.98;93696.97;6072936;23;20346;-91
2023/09/28 05:42:25;;;;;;;183.07;67.45;;;;;;;21.53;43.89;93698.22;6045582;23;20014;-92
2023/09/28 05:44:52;;;;;;;150.35;64.30;;;;;;;21.56;44.17;93697.19;6072125;23;20465;-91
2023/09/28 05:47:20;;;;;;;132.15;57.92;;;;;;;21.58;44.23;93699.41;6095495;23;20017;-92
2023/09/28 05:49:47;;;;;;;135.55;53.55;;;;;;;21.55;44.33;93696.44;6048648;23;20010;-91
2023/09/28 05:52:12;;;;;;;117.55;53.35;;;;;;;21.55;44.52;93703.94;6048161;23;20366;-90
2023/09/28 05:54:38;;;;;;;108.85;48.47;;;;;;;21.59;44.11;93703.66;6071227;23;20049;-90
2023/09/28 05:57:04;;;;;;;117.40;55.03;;;;;;;21.62;44.33;93702.59;6045066;23;20030;-88
2023/09/28 05:59:29;;;;;;;118.28;46.42;;;;;;;21.62;44.67;93703.34;6114454;23;20022;-90
2023/09/28 06:01:56;;;;;;;140.70;74.60;;;;;;;21.72;44.62;93704.41;6044250;23;20026;-88
2023/09/28 06:04:22;;;;;;;165.07;84.13;;;;;;;21.74;44.95;93709.41;6042790;23;20355;-87
2023/09/28 06:06:50;;;;;;;156.25;85.55;;;;;;;21.77;44.37;93708.34;6088795;23;20030;-93
2023/09/28 06:09:19;;;;;;;125.50;56.38;;;;;;;21.75;45.10;93708.88;6047031;23;20022;-90
2023/09/28 06:11:48;;;;;;;109.13;49.75;;;;;;;21.79;44.98;93714.06;6071293;23;20042;-90
2023/09/28 06:14:15;;;;;;;112.20;52.33;;;;;;;21.81;45.08;93719.78;6088260;23;20026;-91
2023/09/28 06:16:42;;;;;;;117.10;57.28;;;;;;;21.83;44.73;93714.50;6067063;23;20277;-92
2023/09/28 06:19:07;;;;;;;107.60;55.47;;;;;;;21.82;44.72;93722.03;6065829;23;20030;-92
2023/09/28 06:21:33;;;;;;;122.50;60.90;;;;;;;21.78;44.73;93718.84;6064444;23;20026;-90
2023/09/28 06:23:58;;;;;;;114.60;64.22;;;;;;;21.77;45.03;93716.59;6064857;23;20010;-91
2023/09/28 06:26:27;;;;;;;111.75;66.15;;;;;;;21.78;44.81;93720.84;6063777;23;20048;-92
2023/09/28 06:28:54;;;;;;;110.80;65.05;;;;;;;21.77;45.03;93719.34;6040726;23;20462;-90
2023/09/28 06:31:22;;;;;;;126.28;73.93;;;;;;;21.78;44.89;93718.09;6061314;23;20541;-91
2023/09/28 06:33:48;;;;;;;145.18;70.80;;;;;;;21.80;44.99;93721.81;6042414;23;20018;-94
2023/09/28 06:36:15;;;;;;;134.35;71.88;;;;;;;21.84;45.10;93724.25;6038865;23;20030;-90
2023/09/28 06:38:41;;;;;;;144.75;80.90;;;;;;;21.80;45.07;93727.31;6088065;23;20018;-90
2023/09/28 06:41:06;;;;;;;153.68;88.65;;;;;;;21.77;45.21;93725.59;6041083;23;20416;-91
2023/09/28 06:43:32;;;;;;;163.68;94.25;;;;;;;21.82;45.16;93733.03;6064839;23;20025;-92
2023/09/28 06:45:58;;;;;;;164.82;96.20;;;;;;;21.82;45.22;93732.28;6039934;23;20053;-91
2023/09/28 06:48:28;;;;;;;164.90;98.03;;;;;;;21.80;45.58;93734.81;6040248;23;20022;-92
2023/09/28 06:50:57;;;;;;;;;;;;;;;21.81;45.54;93737.06;6040765;23;20158;-92
2023/09/28 06:53:23;;;;;;;285.70;136.35;;;;;;;21.81;45.41;93734.28;6064584;23;19921;-89
2023/09/28 06:55:48;;;;;;;205.88;121.30;;;;;;;21.82;45.85;93729.53;6040971;23;20022;-91
2023/09/28 06:58:14;;;;;;;238.95;137.10;;;;;;;21.80;45.80;93732.81;6070340;23;20343;-92
2023/09/28 07:00:42;;;;;;;247.55;142.68;;;;;;;21.82;45.80;93737.78;6049656;23;20026;-91
2023/09/28 07:03:08;;;;;;;263.23;143.98;;;;;;;21.79;45.63;93739.59;6092019;23;20025;-90
2023/09/28 07:05:34;;;;;;;248.00;141.13;;;;;;;21.79;45.86;93736.09;6064259;23;20030;-91
2023/09/28 07:08:05;;;;;;;262.02;146.65;;;;;;;21.80;45.95;93746.56;6041973;23;20026;-91
2023/09/28 07:10:35;;;;;;;258.48;145.10;;;;;;;21.82;46.00;93746.06;6040100;23;20455;-91
2023/09/28 07:13:05;;;;;;;279.15;151.57;;;;;;;21.81;46.08;93753.56;6064807;23;20097;-93
2023/09/28 07:15:32;;;;;;;267.48;148.55;;;;;;;21.83;46.05;93758.53;6041650;23;20026;-90
2023/09/28 07:17:58;;;;;;;267.75;148.88;;;;;;;21.83;45.93;93756.53;6067767;23;20113;-90
2023/09/28 07:20:26;;;;;;;270.52;153.50;;;;;;;21.86;45.79;93760.25;6027231;23;20054;-96
2023/09/28 07:22:51;;;;;;;268.65;144.32;;;;;;;21.83;45.92;93762.03;6020599;23;20034;-93
2023/09/28 07:25:19;;;;;;;249.88;140.75;;;;;;;21.82;46.11;93763.31;5987672;23;20026;-90
2023/09/28 07:27:52;;;;;;;255.90;142.55;;;;;;;21.86;46.13;93765.75;6095494;23;20011;-92
2023/09/28 07:30:19;;;;;;;242.57;135.13;;;;;;;21.84;46.39;93769.03;6028389;23;20033;-91
2023/09/28 07:32:45;;;;;;;254.95;140.82;;;;;;;21.88;45.97;93772.19;6010171;23;20455;-89
2023/09/28 07:35:14;;;;;;;247.75;134.15;;;;;;;21.89;46.22;93773.69;6039639;23;20073;-89
2023/09/28 07:37:43;;;;;;;253.40;136.60;;;;;;;21.93;46.02;93775.38;6047990;23;20022;-94
2023/09/28 07:40:24;;;;;;;298.02;141.70;;;;;;;21.95;45.99;93770.09;6093356;23;20013;-91
2023/09/28 07:42:52;;;;;;;281.52;137.57;;;;;;;21.98;46.20;93777.31;6079178;23;20026;-92
2023/09/28 07:45:22;;;;;;;258.75;133.88;;;;;;;21.95;46.23;93779.09;6046715;23;20022;-93
2023/09/28 07:47:48;;;;;;;282.05;143.27;;;;;;;21.95;45.92;93776.34;6071150;23;20064;-91
2023/09/28 07:50:19;;;;;;;287.30;142.95;;;;;;;21.94;46.06;93774.88;6046675;23;20625;-91
2023/09/28 07:52:45;;;;;;;274.90;141.93;;;;;;;21.99;46.14;93785.06;6049702;23;20033;-91
2023/09/28 07:55:11;;;;;;;263.65;142.20;;;;;;;22.01;46.27;93785.28;6044812;23;20034;-92
2023/09/28 07:57:38;;;;;;;297.17;150.73;;;;;;;22.04;46.54;93780.75;6058943;23;20081;-92
2023/09/28 08:00:06;;;;;;;299.67;160.65;;;;;;;22.04;46.51;93784.25;6072824;23;20045;-91
2023/09/28 08:02:32;;;;;;;288.23;145.75;;;;;;;22.06;46.24;93778.22;6035044;23;20037;-93
2023/09/28 08:04:58;;;;;;;304.92;181.63;;;;;;;22.13;46.56;93778.31;6071579;23;20430;-92
2023/09/28 08:07:24;;;;;;;342.65;195.07;;;;;;;22.14;46.31;93776.31;6071695;23;20040;-91
2023/09/28 08:09:51;;;;;;;275.15;151.50;;;;;;;22.14;46.08;93784.56;6074273;23;20026;-91
2023/09/28 08:12:17;;;;;;;272.90;146.35;;;;;;;22.10;46.35;93784.13;6045638;23;20077;-92
2023/09/28 08:14:43;;;;;;;246.68;136.60;;;;;;;22.12;46.54;93798.88;6075564;23;20022;-93
2023/09/28 08:17:09;;;;;;;256.08;135.82;;;;;;;22.12;46.68;93796.13;6094134;23;20026;-91
2023/09/28 08:19:36;;;;;;;207.23;111.03;;;;;;;22.13;47.18;93799.59;6070582;23;20020;-93
2023/09/28 08:22:03;;;;;;;199.18;109.00;;;;;;;22.14;47.80;93796.34;6049952;23;20030;-91
2023/09/28 08:24:30;;;;;;;189.70;110.90;;;;;;;22.12;48.25;93798.88;6075350;23;20017;-91
2023/09/28 08:26:56;;;;;;;152.43;89.72;;;;;;;22.05;49.80;93802.25;6053261;23;20021;-92
2023/09/28 08:29:27;;;;;;;176.52;99.25;;;;;;;22.04;49.40;93800.78;6049524;23;20138;-91
2023/09/28 08:31:54;;;;;;;;;;;;;;;22.05;50.00;93798.75;6075032;23;20018;-93
2023/09/28 08:34:21;;;;;;;137.05;75.25;;;;;;;22.04;50.76;93800.78;6072698;23;19917;-91
2023/09/28 08:36:47;;;;;;;151.32;82.80;;;;;;;21.99;50.73;93804.31;6096892;23;20017;-93
2023/09/28 08:39:13;;;;;;;157.55;85.35;;;;;;;22.00;50.75;93797.56;6065945;23;20022;-91
2023/09/28 08:41:47;;;;;;;116.80;59.15;;;;;;;22.03;51.01;93801.28;6038776;23;20019;-93
2023/09/28 08:44:14;;;;;;;127.68;66.50;;;;;;;22.03;51.08;93802.03;6063306;23;20077;-92
2023/09/28 08:46:40;;;;;;;127.82;66.50;;;;;;;22.06;51.65;93806.50;6066426;23;20115;-91
2023/09/28 08:49:10;;;;;;;131.52;72.65;;;;;;;22.08;51.26;93800.47;6066585;23;20023;-91
2023/09/28 08:51:39;;;;;;;133.82;72.68;;;;;;;22.12;51.03;93804.38;6042466;23;20018;-93
2023/09/28 08:54:10;;;;;;;122.07;70.80;;;;;;;22.08;51.32;93808.72;6040753;23;20026;-92
2023/09/28 08:56:37;;;;;;;154.18;86.45;;;;;;;22.10;50.36;93815.16;6033806;23;20381;-92
2023/09/28 08:59:07;;;;;;;94.20;49.80;;;;;;;22.06;53.01;93806.50;5992039;23;20018;-92
2023/09/28 09:01:33;;;;;;;112.93;56.13;;;;;;;22.05;52.86;93801.50;6016772;23;20029;-93
2023/09/28 09:03:59;;;;;;;652.35;120.00;;;;;;;22.07;52.39;93810.75;5991687;23;20023;-92
2023/09/28 09:06:28;;;;;;;215.18;63.97;;;;;;;22.05;52.42;93798.75;5991086;23;20105;-93
2023/09/28 09:08:54;;;;;;;147.48;59.38;;;;;;;22.10;52.36;93806.91;5992313;23;20019;-92
2023/09/28 09:11:20;;;;;;;117.13;59.25;;;;;;;22.12;52.29;93806.38;5991351;23;20079;-91
2023/09/28 09:13:49;;;;;;;125.28;63.40;;;;;;;22.14;51.85;93803.84;6016082;23;20391;-90
2023/09/28 09:16:14;;;;;;;141.88;69.80;;;;;;;22.14;51.95;93798.34;6001464;23;20027;-91
2023/09/28 09:18:41;;;;;;;138.15;68.53;;;;;;;22.14;51.58;93801.09;5992366;23;20084;-91
2023/09/28 09:21:07;;;;;;;160.18;80.20;;;;;;;22.16;51.66;93802.06;5990627;23;20454;-92
2023/09/28 09:23:33;;;;;;;178.25;88.88;;;;;;;22.16;51.60;93807.56;6007326;23;20513;-91
2023/09/28 09:25:59;;;;;;;162.52;93.22;;;;;;;22.20;51.71;93797.00;6065983;23;20051;-91
2023/09/28 09:28:29;;;;;;;170.32;93.40;;;;;;;22.19;51.73;93798.25;6029601;23;20010;-93
2023/09/28 09:31:06;;;;;;;178.90;97.70;;;;;;;22.23;51.41;93808.97;6034215;23;20038;-93
2023/09/28 09:33:36;;;;;;;176.30;102.57;;;;;;;22.23;51.29;93809.72;6026019;23;20030;-93
2023/09/28 09:36:05;;;;;;;196.48;117.90;;;;;;;22.23;51.01;93806.94;6040660;23;20031;-93
2023/09/28 09:38:39;;;;;;;200.82;119.25;;;;;;;22.23;50.91;93797.94;6022854;23;20339;-93
2023/09/28 09:41:37;;;;;;;205.75;117.57;;;;;;;22.23;50.70;93798.69;5997570;23;20022;-94
2023/09/28 09:44:03;;;;;;;214.57;119.25;;;;;;;22.28;50.92;93802.63;6057973;23;20015;-91
2023/09/28 09:46:33;;;;;;;240.55;127.47;;;;;;;22.27;50.92;93806.66;6024756;23;20019;-92
2023/09/28 09:48:59;;;;;;;230.73;123.53;;;;;;;22.29;51.04;93806.88;6048448;23;20039;-93
2023/09/28 09:51:24;;;;;;;233.20;126.07;;;;;;;22.28;51.04;93802.63;6035848;23;20791;-92
2023/09/28 09:53:52;;;;;;;210.25;120.35;;;;;;;22.26;51.09;93799.66;6069892;23;20023;-93
2023/09/28 09:56:18;;;;;;;225.98;114.20;;;;;;;22.28;51.24;93796.38;6024236;23;20550;-92
2023/09/28 09:58:48;;;;;;;218.77;118.60;;;;;;;22.36;51.20;93802.72;6042059;23;20053;-92
2023/09/28 10:01:20;;;;;;;302.40;192.80;;;;;;;22.33;51.12;93798.28;6025719;23;20105;-92
2023/09/28 10:03:47;;;;;;;223.43;114.30;;;;;;;22.35;51.06;93807.50;6036523;23;20018;-91
2023/09/28 10:06:16;;;;;;;283.10;159.80;;;;;;;22.32;51.22;93808.53;6067610;23;20067;-91
2023/09/28 10:08:53;;;;;;;240.07;139.98;;;;;;;22.28;51.30;93804.63;6028440;23;20023;-89
2023/09/28 10:11:20;;;;;;;208.73;114.15;;;;;;;22.28;51.80;93807.41;6071554;23;20023;-91
2023/09/28 10:13:48;;;;;;;198.07;108.28;;;;;;;22.28;51.74;93810.16;6080366;23;20025;-92
2023/09/28 10:16:13;;;;;;;649.25;577.50;;;;;;;22.30;51.54;93810.38;6096247;23;20025;-90
2023/09/28 10:18:40;;;;;;;490.27;406.85;;;;;;;22.31;51.55;93811.81;6091555;23;20018;-90
2023/09/28 10:21:09;;;;;;;218.15;120.63;;;;;;;22.29;51.44;93817.16;6121978;23;20025;-88
2023/09/28 10:23:37;;;;;;;204.65;118.38;;;;;;;22.30;51.73;93819.34;6114078;23;20117;-90
2023/09/28 10:26:20;;;;;;;198.18;112.18;;;;;;;22.31;51.48;93814.56;6078755;23;20014;-90
2023/09/28 10:29:05;;;;;;;179.25;102.70;;;;;;;22.31;51.40;93818.06;6084775;23;20046;-88
2023/09/28 10:31:41;;;;;;;498.70;432.83;;;;;;;22.33;51.49;93814.78;6063614;23;20485;-90
2023/09/28 10:34:22;;;;;;;391.73;321.00;;;;;;;22.34;51.63;93814.28;6080806;23;20072;-91
2023/09/28 10:37:15;;;;;;;151.52;91.40;;;;;;;22.31;51.56;93809.81;6115483;23;20023;-90
2023/09/28 10:39:51;;;;;;;150.13;90.53;;;;;;;22.34;51.40;93802.50;6167967;23;20028;-89
2023/09/28 10:42:17;;;;;;;430.35;340.70;;;;;;;22.35;51.50;93801.25;6090565;23;20028;-93
2023/09/28 10:44:54;;;;;;;206.60;144.88;;;;;;;22.35;51.54;93801.97;6061431;23;20404;-93
2023/09/28 10:47:20;;;;;;;170.88;111.13;;;;;;;22.39;51.70;93805.19;6028410;23;20038;-92
2023/09/28 10:49:45;;;;;;;134.85;87.18;;;;;;;22.37;51.34;93806.97;6030748;23;20070;-92
2023/09/28 10:52:31;;;;;;;110.78;76.43;;;;;;;22.34;51.70;93810.78;6055617;23;20038;-90
2023/09/28 10:55:06;;;;;;;125.40;79.35;;;;;;;22.34;51.63;93813.53;6030698;23;20019;-91
2023/09/28 10:57:33;;;;;;;124.85;78.13;;;;;;;22.34;51.71;93808.03;6111916;23;20026;-91
2023/09/28 11:00:09;;;;;;;119.50;73.93;;;;;;;22.30;51.99;93805.56;6119687;23;20020;-90
2023/09/28 11:02:40;;;;;;;118.03;73.25;;;;;;;22.36;52.17;93799.97;6094828;23;20421;-90
2023/09/28 11:05:09;;;;;;;102.78;64.53;;;;;;;22.35;52.34;93810.25;6081562;23;20018;-90
2023/09/28 11:07:35;;;;;;;109.20;62.53;;;;;;;22.34;52.55;93797.00;6104957;23;20018;-90
2023/09/28 11:10:02;;;;;;;111.53;64.90;;;;;;;22.35;52.57;93804.00;6032457;23;20025;-91
2023/09/28 11:12:28;;;;;;;102.63;62.05;;;;;;;22.37;52.24;93793.19;6046886;23;20027;-90
2023/09/28 11:14:58;;;;;;;111.68;62.53;;;;;;;22.37;52.28;93801.47;6072921;23;20026;-90
2023/09/28 11:17:24;;;;;;;102.13;60.80;;;;;;;22.35;52.55;93798.50;6048162;23;20022;-91